createdAt,value
2022-09-04T00:02:05.431Z,55.10
2022-09-04T00:04:46.616Z,54.40
2022-09-04T00:07:54.323Z,54.00
2022-09-04T00:10:36.173Z,53.60
2022-09-04T00:13:28.426Z,53.40
2022-09-04T00:16:03.800Z,52.90
2022-09-04T00:18:33.463Z,52.20
2022-09-04T00:21:05.376Z,52.10
2022-09-04T00:23:34.726Z,52.10
2022-09-04T00:26:42.821Z,52.70
2022-09-04T00:29:21.306Z,54.50
2022-09-04T00:31:59.139Z,53.40
2022-09-04T00:35:18.297Z,53.30
2022-09-04T00:37:58.936Z,52.90
2022-09-04T00:40:38.117Z,52.80
2022-09-04T00:43:29.540Z,52.60
2022-09-04T00:46:30.399Z,54.10
2022-09-04T00:49:03.153Z,54.50
2022-09-04T00:52:07.498Z,53.80
2022-09-04T00:54:52.251Z,55.20
2022-09-04T00:57:37.040Z,54.10
2022-09-04T01:00:16.364Z,53.20
2022-09-04T01:03:03.775Z,54.40
2022-09-04T01:05:52.151Z,56.50
2022-09-04T01:08:47.026Z,54.90
2022-09-04T01:11:24.589Z,53.50
2022-09-04T01:13:51.730Z,53.10
2022-09-04T01:16:48.079Z,52.80
2022-09-04T01:19:32.758Z,53.50
2022-09-04T01:22:30.446Z,52.90
2022-09-04T01:25:24.559Z,53.60
2022-09-04T01:28:29.088Z,53.40
2022-09-04T01:31:08.090Z,53.50
2022-09-04T01:33:41.631Z,53.50
2022-09-04T01:36:14.793Z,53.90
2022-09-04T01:38:53.452Z,53.40
2022-09-04T01:41:38.741Z,53.00
2022-09-04T01:44:08.626Z,52.80
2022-09-04T01:47:12.693Z,52.60
2022-09-04T01:49:43.806Z,53.30
2022-09-04T01:52:19.280Z,54.50
2022-09-04T01:55:13.967Z,54.80
2022-09-04T01:58:19.111Z,55.20
2022-09-04T02:00:51.791Z,54.70
2022-09-04T02:03:34.414Z,54.40
2022-09-04T02:06:27.659Z,53.80
2022-09-04T02:09:00.181Z,53.10
2022-09-04T02:11:31.610Z,53.00
2022-09-04T02:14:08.741Z,54.40
2022-09-04T02:17:04.051Z,53.90
2022-09-04T02:19:58.521Z,53.70
2022-09-04T02:22:45.098Z,53.40
2022-09-04T02:25:23.463Z,54.30
2022-09-04T02:27:53.473Z,55.80
2022-09-04T02:30:21.182Z,55.30
2022-09-04T02:32:59.562Z,54.80
2022-09-04T02:35:57.140Z,54.00
2022-09-04T02:38:39.172Z,54.30
2022-09-04T02:41:20.398Z,54.70
2022-09-04T02:44:07.833Z,55.60
2022-09-04T02:46:53.317Z,55.60
2022-09-04T02:49:55.367Z,58.10
2022-09-04T02:52:44.027Z,57.40
2022-09-04T02:55:52.549Z,57.80
2022-09-04T02:58:37.084Z,57.20
2022-09-04T03:01:22.800Z,58.90
2022-09-04T03:04:15.487Z,59.80
2022-09-04T03:06:53.957Z,59.80
2022-09-04T03:09:36.341Z,57.50
2022-09-04T03:12:40.232Z,57.80
2022-09-04T03:15:13.395Z,58.70
2022-09-04T03:17:40.073Z,59.20
2022-09-04T03:20:23.007Z,57.70
2022-09-04T03:23:25.779Z,58.10
2022-09-04T03:26:11.331Z,57.10
2022-09-04T03:29:02.960Z,56.60
2022-09-04T03:32:00.839Z,56.00
2022-09-04T03:35:22.671Z,57.30
2022-09-04T03:37:50.170Z,58.20
2022-09-04T03:40:33.650Z,59.20
2022-09-04T03:43:18.500Z,58.60
2022-09-04T03:46:18.731Z,60.10
2022-09-04T03:49:00.255Z,60.20
2022-09-04T03:51:31.552Z,58.50
2022-09-04T03:54:15.556Z,57.70
2022-09-04T03:56:57.258Z,57.00
2022-09-04T03:59:42.842Z,57.10
2022-09-04T04:02:38.543Z,57.60
2022-09-04T04:05:21.518Z,57.80
2022-09-04T04:08:13.850Z,57.60
2022-09-04T04:10:58.194Z,56.20
2022-09-04T04:13:36.109Z,55.30
2022-09-04T04:16:27.658Z,55.20
2022-09-04T04:19:03.801Z,54.90
2022-09-04T04:21:59.722Z,55.20
2022-09-04T04:24:49.383Z,55.50
2022-09-04T04:27:33.452Z,55.80
2022-09-04T04:30:04.259Z,55.60
2022-09-04T04:33:06.279Z,55.40
2022-09-04T04:35:40.383Z,55.20
2022-09-04T04:38:47.525Z,55.10
2022-09-04T04:41:25.088Z,56.30
2022-09-04T04:44:12.404Z,57.40
2022-09-04T04:47:07.916Z,58.10
2022-09-04T04:49:45.548Z,58.10
2022-09-04T04:52:38.902Z,57.30
2022-09-04T04:55:49.234Z,56.00
2022-09-04T04:58:27.230Z,56.70
2022-09-04T05:01:22.670Z,59.30
2022-09-04T05:04:16.079Z,59.10
2022-09-04T05:06:58.411Z,58.80
2022-09-04T05:09:37.707Z,58.60
2022-09-04T05:12:22.491Z,59.70
2022-09-04T05:15:04.210Z,58.70
2022-09-04T05:17:42.796Z,57.80
2022-09-04T05:20:47.926Z,57.80
2022-09-04T05:23:39.500Z,57.10
2022-09-04T05:26:47.155Z,57.70
2022-09-04T05:29:35.215Z,56.00
2022-09-04T05:32:18.223Z,56.70
2022-09-04T05:34:51.654Z,55.90
2022-09-04T05:37:40.405Z,56.80
2022-09-04T05:40:38.547Z,56.80
2022-09-04T05:43:16.511Z,56.20
2022-09-04T05:45:57.231Z,57.30
2022-09-04T05:48:34.263Z,56.60
2022-09-04T05:51:26.663Z,55.90
2022-09-04T05:54:00.371Z,55.40
2022-09-04T05:56:45.515Z,54.80
2022-09-04T05:59:47.506Z,55.20
2022-09-04T06:02:39.015Z,54.90
2022-09-04T06:05:21.222Z,55.70
2022-09-04T06:07:50.813Z,56.20
2022-09-04T06:10:41.157Z,55.70
2022-09-04T06:13:30.815Z,56.80
2022-09-04T06:16:22.519Z,57.20
2022-09-04T06:19:22.357Z,56.70
2022-09-04T06:22:10.130Z,56.10
2022-09-04T06:24:59.639Z,56.00
2022-09-04T06:27:52.931Z,55.50
2022-09-04T06:30:19.960Z,56.00
2022-09-04T06:33:20.142Z,55.70
2022-09-04T06:36:04.881Z,55.70
2022-09-04T06:38:44.312Z,55.40
2022-09-04T06:41:20.033Z,55.20
2022-09-04T06:44:11.514Z,55.20
2022-09-04T06:46:47.648Z,55.00
2022-09-04T06:49:30.499Z,54.80
2022-09-04T06:52:07.484Z,55.00
2022-09-04T06:54:55.864Z,55.10
2022-09-04T06:58:10.915Z,55.80
2022-09-04T07:00:58.379Z,55.50
2022-09-04T07:03:36.547Z,55.80
2022-09-04T07:06:21.191Z,55.60
2022-09-04T07:09:23.019Z,55.90
2022-09-04T07:12:03.931Z,57.30
2022-09-04T07:14:49.435Z,56.80
2022-09-04T07:17:29.655Z,56.80
2022-09-04T07:20:34.633Z,57.00
2022-09-04T07:23:17.400Z,57.00
2022-09-04T07:26:26.836Z,57.80
2022-09-04T07:29:16.082Z,56.90
2022-09-04T07:32:18.887Z,57.00
2022-09-04T07:35:13.139Z,57.20
2022-09-04T07:38:01.127Z,57.40
2022-09-04T07:40:44.860Z,57.50
2022-09-04T07:43:21.329Z,57.90
2022-09-04T07:46:05.337Z,57.90
2022-09-04T07:48:48.445Z,58.50
2022-09-04T07:51:22.194Z,57.90
2022-09-04T07:54:38.169Z,58.30
2022-09-04T07:57:29.217Z,58.30
2022-09-04T08:00:10.374Z,58.40
2022-09-04T08:02:46.309Z,59.20
2022-09-04T08:05:24.232Z,58.50
2022-09-04T08:08:37.914Z,58.10
2022-09-04T08:11:04.888Z,59.20
2022-09-04T08:14:06.371Z,57.60
2022-09-04T08:16:53.359Z,58.50
2022-09-04T08:19:27.241Z,58.10
2022-09-04T08:21:55.643Z,59.90
2022-09-04T08:24:28.340Z,61.70
2022-09-04T08:27:04.138Z,61.00
2022-09-04T08:29:42.732Z,58.50
2022-09-04T08:32:32.451Z,57.70
2022-09-04T08:35:20.103Z,58.30
2022-09-04T08:37:46.670Z,57.70
2022-09-04T08:40:54.989Z,57.70
2022-09-04T08:43:39.999Z,57.50
2022-09-04T08:46:23.158Z,60.10
2022-09-04T08:49:36.177Z,59.30
2022-09-04T08:52:42.744Z,58.50
2022-09-04T08:55:27.619Z,57.50
2022-09-04T08:58:16.044Z,60.50
2022-09-04T09:01:19.906Z,56.40
2022-09-04T09:03:55.599Z,55.80
2022-09-04T09:06:50.359Z,56.60
2022-09-04T09:09:45.312Z,56.00
2022-09-04T09:12:41.084Z,55.60
2022-09-04T09:15:40.746Z,55.30
2022-09-04T09:18:30.200Z,56.70
2022-09-04T09:21:05.788Z,55.00
2022-09-04T09:23:44.387Z,54.20
2022-09-04T09:26:24.062Z,56.70
2022-09-04T09:29:16.238Z,56.70
2022-09-04T09:32:03.941Z,54.10
2022-09-04T09:35:06.886Z,54.10
2022-09-04T09:37:53.823Z,54.20
2022-09-04T09:41:06.435Z,54.60
2022-09-04T09:44:01.491Z,54.10
2022-09-04T09:46:38.433Z,54.70
2022-09-04T09:49:15.210Z,53.10
2022-09-04T09:52:00.385Z,53.00
2022-09-04T09:55:07.923Z,53.00
2022-09-04T09:57:52.721Z,51.80
2022-09-04T10:00:23.609Z,51.70
2022-09-04T10:03:24.327Z,51.80
2022-09-04T10:06:00.030Z,51.20
2022-09-04T10:08:58.080Z,51.30
2022-09-04T10:11:55.313Z,51.10
2022-09-04T10:14:37.442Z,51.50
2022-09-04T10:17:09.929Z,50.40
2022-09-04T10:20:11.509Z,49.90
2022-09-04T10:22:51.524Z,49.30
2022-09-04T10:25:35.168Z,49.70
2022-09-04T10:28:40.783Z,48.90
2022-09-04T10:31:19.462Z,48.70
2022-09-04T10:34:11.527Z,48.60
2022-09-04T10:36:54.074Z,47.80
2022-09-04T10:40:43.133Z,47.90
2022-09-04T10:43:29.771Z,47.90
2022-09-04T10:46:22.715Z,47.20
2022-09-04T10:49:26.007Z,47.30
2022-09-04T10:52:14.823Z,47.30
2022-09-04T10:55:14.793Z,46.60
2022-09-04T10:58:12.079Z,46.30
2022-09-04T11:01:18.558Z,45.50
2022-09-04T11:04:27.127Z,45.00
2022-09-04T11:07:28.844Z,44.90
2022-09-04T11:10:26.102Z,45.00
2022-09-04T11:13:23.024Z,44.80
2022-09-04T11:16:09.462Z,45.00
2022-09-04T11:18:55.081Z,44.40
2022-09-04T11:21:31.124Z,44.70
2022-09-04T11:24:17.935Z,44.40
2022-09-04T11:27:04.804Z,44.40
2022-09-04T11:29:41.195Z,44.30
2022-09-04T11:32:48.532Z,44.30
2022-09-04T11:35:33.845Z,44.00
2022-09-04T11:38:13.888Z,43.80
2022-09-04T11:41:07.452Z,43.60
2022-09-04T11:44:10.159Z,43.50
2022-09-04T11:47:06.681Z,43.60
2022-09-04T11:49:40.721Z,43.10
2022-09-04T11:52:48.588Z,43.60
2022-09-04T11:55:52.885Z,42.90
2022-09-04T11:58:31.705Z,41.70
2022-09-04T12:01:26.905Z,41.40
2022-09-04T12:04:05.669Z,41.90
2022-09-04T12:06:36.244Z,40.70
2022-09-04T12:09:36.652Z,41.80
2022-09-04T12:12:22.533Z,40.80
2022-09-04T12:15:07.606Z,40.20
2022-09-04T12:17:50.052Z,40.80
2022-09-04T12:20:42.540Z,40.80
2022-09-04T12:23:30.825Z,39.40
2022-09-04T12:26:22.609Z,39.30
2022-09-04T12:29:27.912Z,38.90
2022-09-04T12:32:03.564Z,38.60
2022-09-04T12:34:51.933Z,38.50
2022-09-04T12:37:33.909Z,38.90
2022-09-04T12:40:12.903Z,39.10
2022-09-04T12:43:00.739Z,39.60
2022-09-04T12:46:05.907Z,39.00
2022-09-04T12:48:57.858Z,38.90
2022-09-04T12:51:26.726Z,39.30
2022-09-04T12:54:05.204Z,39.80
2022-09-04T12:56:53.834Z,39.30
2022-09-04T12:59:46.474Z,39.40
2022-09-04T13:02:34.091Z,40.00
2022-09-04T13:05:15.708Z,40.50
2022-09-04T13:08:08.318Z,41.60
2022-09-04T13:10:41.699Z,40.40
2022-09-04T13:13:23.549Z,41.40
2022-09-04T13:16:20.342Z,41.80
2022-09-04T13:18:53.891Z,41.10
2022-09-04T13:21:35.377Z,39.20
2022-09-04T13:24:35.734Z,37.80
2022-09-04T13:27:09.070Z,39.60
2022-09-04T13:29:53.487Z,39.50
2022-09-04T13:32:45.191Z,38.50
2022-09-04T13:35:36.445Z,39.30
2022-09-04T13:38:15.119Z,39.30
2022-09-04T13:41:12.726Z,37.70
2022-09-04T13:44:13.555Z,37.60
2022-09-04T13:46:50.456Z,36.20
2022-09-04T13:49:32.714Z,38.30
2022-09-04T13:52:07.362Z,36.50
2022-09-04T13:54:39.711Z,37.20
2022-09-04T13:57:28.383Z,37.00
2022-09-04T14:00:00.167Z,35.50
2022-09-04T14:02:30.163Z,34.80
2022-09-04T14:05:04.686Z,34.30
2022-09-04T14:07:36.247Z,34.10
2022-09-04T14:10:20.680Z,33.50
2022-09-04T14:12:53.663Z,34.20
2022-09-04T14:15:32.788Z,33.60
2022-09-04T14:18:17.707Z,33.60
2022-09-04T14:21:01.117Z,34.90
2022-09-04T14:23:47.804Z,33.80
2022-09-04T14:26:29.444Z,33.60
2022-09-04T14:29:22.312Z,33.40
2022-09-04T14:32:23.992Z,33.60
2022-09-04T14:35:13.811Z,32.80
2022-09-04T14:37:51.992Z,34.90
2022-09-04T14:40:37.329Z,35.20
2022-09-04T14:43:32.524Z,32.70
2022-09-04T14:46:34.944Z,32.00
2022-09-04T14:49:14.508Z,33.40
2022-09-04T14:51:45.873Z,31.00
2022-09-04T14:54:30.536Z,32.30
2022-09-04T14:57:04.377Z,32.40
2022-09-04T14:59:37.009Z,32.20
2022-09-04T15:02:18.558Z,30.80
2022-09-04T15:04:59.041Z,31.40
2022-09-04T15:07:50.504Z,32.80
2022-09-04T15:10:50.455Z,32.40
2022-09-04T15:13:30.159Z,32.40
2022-09-04T15:16:10.930Z,33.30
2022-09-04T15:18:48.232Z,33.70
2022-09-04T15:21:38.651Z,35.40
2022-09-04T15:24:17.456Z,34.80
2022-09-04T15:26:55.661Z,34.80
2022-09-04T15:29:26.790Z,32.90
2022-09-04T15:32:04.252Z,34.10
2022-09-04T15:34:36.773Z,34.30
2022-09-04T15:37:14.876Z,34.10
2022-09-04T15:40:13.954Z,34.10
2022-09-04T15:42:59.244Z,32.90
2022-09-04T15:45:31.312Z,32.50
2022-09-04T15:48:19.753Z,32.00
2022-09-04T15:50:58.576Z,32.20
2022-09-04T15:53:37.359Z,32.70
2022-09-04T15:56:21.594Z,33.40
2022-09-04T15:59:18.258Z,32.70
2022-09-04T16:02:20.087Z,32.60
2022-09-04T16:05:11.522Z,33.10
2022-09-04T16:07:41.371Z,33.70
2022-09-04T16:10:16.720Z,33.20
2022-09-04T16:13:09.321Z,33.00
2022-09-04T16:15:42.857Z,34.30
2022-09-04T16:18:18.392Z,33.60
2022-09-04T16:21:04.289Z,32.40
2022-09-04T16:23:38.232Z,32.00
2022-09-04T16:26:14.914Z,33.30
2022-09-04T16:28:51.244Z,32.60
2022-09-04T16:31:30.095Z,32.70
2022-09-04T16:34:26.808Z,32.30
2022-09-04T16:37:11.610Z,32.20
2022-09-04T16:40:08.513Z,32.40
2022-09-04T16:42:41.772Z,32.30
2022-09-04T16:45:25.296Z,32.30
2022-09-04T16:47:55.121Z,32.70
2022-09-04T16:50:30.415Z,32.70
2022-09-04T16:53:13.503Z,32.80
2022-09-04T16:56:07.308Z,32.90
2022-09-04T16:58:54.609Z,33.70
2022-09-04T17:01:41.013Z,34.30
2022-09-04T17:04:14.414Z,33.80
2022-09-04T17:06:57.348Z,33.70
2022-09-04T17:09:32.054Z,33.10
2022-09-04T17:12:16.228Z,33.40
2022-09-04T17:15:07.786Z,33.80
2022-09-04T17:17:40.960Z,33.80
2022-09-04T17:20:09.681Z,34.00
2022-09-04T17:28:59.806Z,34.30
2022-09-04T17:29:09.210Z,34.50
2022-09-04T17:29:29.847Z,34.70
2022-09-04T17:31:52.987Z,34.90
2022-09-04T17:40:35.450Z,35.00
2022-09-04T17:40:51.162Z,35.10
2022-09-04T17:41:34.749Z,35.40
2022-09-04T17:43:22.194Z,35.40
2022-09-04T17:46:15.800Z,35.80
2022-09-04T17:48:44.396Z,35.80
2022-09-04T17:51:25.578Z,35.90
2022-09-04T17:54:03.003Z,36.10
2022-09-04T17:56:37.812Z,36.30
2022-09-04T17:59:16.084Z,36.40
2022-09-04T18:01:59.182Z,36.70
2022-09-04T18:05:03.414Z,37.10
2022-09-04T18:08:08.190Z,37.40
2022-09-04T18:10:34.263Z,37.40
2022-09-04T18:13:38.668Z,37.50
2022-09-04T18:16:26.028Z,37.80
2022-09-04T18:18:58.496Z,37.70
2022-09-04T18:21:53.932Z,37.90
2022-09-04T18:24:43.787Z,38.00
2022-09-04T18:27:20.845Z,38.00
2022-09-04T18:36:06.368Z,38.10
2022-09-04T18:37:20.408Z,38.30
2022-09-04T18:37:26.720Z,38.20
2022-09-04T18:39:10.058Z,38.40
2022-09-04T18:46:21.324Z,38.80
2022-09-04T18:50:22.375Z,39.00
2022-09-04T18:50:44.666Z,39.10
2022-09-04T18:51:14.682Z,39.30
2022-09-04T18:53:52.684Z,39.40
2022-09-04T18:56:26.369Z,39.70
2022-09-04T18:59:18.331Z,39.90
2022-09-04T19:01:47.582Z,40.30
2022-09-04T19:04:43.309Z,40.40
2022-09-04T19:07:31.643Z,40.30
2022-09-04T19:10:38.235Z,40.50
2022-09-04T19:13:41.259Z,40.70
2022-09-04T19:16:17.188Z,40.90
2022-09-04T19:19:04.527Z,41.10
2022-09-04T19:21:57.833Z,41.20
2022-09-04T19:24:51.627Z,41.20
2022-09-04T19:27:36.512Z,41.60
2022-09-04T19:30:18.630Z,42.20
2022-09-04T19:33:02.762Z,42.40
2022-09-04T19:35:30.213Z,42.40
2022-09-04T19:43:12.966Z,42.30
2022-09-04T19:46:06.218Z,41.80
2022-09-04T19:46:11.145Z,41.90
2022-09-04T19:47:09.585Z,42.30
2022-09-04T19:53:17.854Z,42.70
2022-09-04T19:53:40.375Z,43.20
2022-09-04T19:56:54.898Z,42.60
2022-09-04T19:59:33.691Z,42.50
2022-09-04T20:02:08.093Z,42.90
2022-09-04T20:04:41.322Z,43.20
2022-09-04T20:07:25.873Z,42.90
2022-09-04T20:09:57.365Z,42.80
2022-09-04T20:12:27.631Z,42.60
2022-09-04T20:14:57.128Z,42.80
2022-09-04T20:17:33.255Z,43.90
2022-09-04T20:20:05.829Z,44.30
2022-09-04T20:22:47.948Z,43.70
2022-09-04T20:25:29.653Z,43.70
2022-09-04T20:28:00.428Z,44.40
2022-09-04T20:30:29.793Z,44.20
2022-09-04T20:33:24.266Z,44.80
2022-09-04T20:36:04.679Z,44.50
2022-09-04T20:39:08.675Z,44.80
2022-09-04T20:41:55.794Z,45.30
2022-09-04T20:44:32.030Z,45.50
2022-09-04T20:52:40.907Z,45.60
2022-09-04T20:52:54.034Z,47.00
2022-09-04T20:53:20.491Z,47.90
2022-09-04T20:57:46.945Z,48.40
2022-09-04T21:03:21.877Z,48.10
2022-09-04T21:03:23.359Z,48.20
2022-09-04T21:06:08.143Z,48.30
2022-09-04T21:08:40.867Z,49.10
2022-09-04T21:11:39.383Z,48.70
2022-09-04T21:14:14.535Z,49.30
2022-09-04T21:17:33.369Z,49.60
2022-09-04T21:20:30.183Z,48.90
2022-09-04T21:23:11.914Z,48.20
2022-09-04T21:26:02.607Z,48.70
2022-09-04T21:28:53.375Z,49.60
2022-09-04T21:31:57.248Z,49.40
2022-09-04T21:34:51.854Z,49.30
2022-09-04T21:37:44.958Z,50.50
2022-09-04T21:40:49.729Z,51.10
2022-09-04T21:43:48.023Z,50.50
2022-09-04T21:46:42.190Z,49.40
2022-09-04T21:49:46.555Z,49.00
2022-09-04T21:52:24.470Z,48.70
2022-09-04T21:57:00.056Z,48.80
2022-09-04T22:02:35.218Z,50.10
2022-09-04T22:02:47.662Z,51.30
2022-09-04T22:04:38.336Z,52.00
2022-09-04T22:11:50.265Z,51.70
2022-09-04T22:13:32.890Z,52.60
2022-09-04T22:13:51.310Z,52.10
2022-09-04T22:16:22.385Z,52.40
2022-09-04T22:19:16.655Z,52.90
2022-09-04T22:22:03.603Z,51.30
2022-09-04T22:25:09.575Z,50.70
2022-09-04T22:28:12.159Z,49.80
2022-09-04T22:31:08.882Z,49.90
2022-09-04T22:34:15.405Z,49.60
2022-09-04T22:37:17.311Z,49.60
2022-09-04T22:40:31.491Z,49.00
2022-09-04T22:43:07.381Z,48.90
2022-09-04T22:45:46.245Z,49.20
2022-09-04T22:48:40.832Z,49.90
2022-09-04T22:51:20.876Z,50.30
2022-09-04T22:54:32.695Z,51.40
2022-09-04T22:57:11.388Z,50.70
2022-09-04T23:00:04.556Z,51.00
2022-09-04T23:03:07.185Z,51.10
2022-09-04T23:05:48.045Z,51.60
2022-09-04T23:13:44.566Z,53.40
2022-09-04T23:13:57.110Z,53.80
2022-09-04T23:14:53.635Z,54.80
2022-09-04T23:21:13.560Z,55.20
2022-09-04T23:26:45.516Z,55.50
2022-09-04T23:26:54.235Z,55.00
2022-09-04T23:27:52.290Z,55.00
2022-09-04T23:30:25.773Z,55.30
2022-09-04T23:33:05.842Z,56.10
2022-09-04T23:35:56.471Z,55.40
2022-09-04T23:38:51.396Z,54.30
2022-09-04T23:41:36.350Z,54.00
2022-09-04T23:44:25.787Z,54.70
2022-09-04T23:47:48.371Z,55.40
2022-09-04T23:50:50.160Z,55.10
2022-09-04T23:53:41.632Z,54.70
2022-09-04T23:56:47.129Z,54.20
2022-09-04T23:59:38.170Z,54.70
